Time;durP1;ratioP1;P1;durP2;ratioP2;P2;SDS_P1;SDS_P2;PMS_P1;PMS_P2;Temp;Humidity;BMP_temperature;BMP_pressure;BME280_temperature;BME280_humidity;BME280_pressure;Samples;Min_cycle;Max_cycle;Signal;HPM_P1;HPM_P2
2023/02/03 00:00:23;;;;;;;6.85;2.72;;;;;;;0.53;68.96;99147.13;5050017;28;20029;-77
2023/02/03 00:02:48;;;;;;;7.47;3.40;;;;;;;0.57;69.30;99134.88;5049816;28;20111;-77
2023/02/03 00:05:13;;;;;;;6.72;3.60;;;;;;;0.57;68.88;99140.25;5050095;28;20024;-77
2023/02/03 00:07:39;;;;;;;6.13;3.10;;;;;;;0.58;68.88;99150.03;5049962;28;20029;-77
2023/02/03 00:10:07;;;;;;;6.15;3.15;;;;;;;0.57;68.74;99151.91;5049730;28;20433;-77
2023/02/03 00:12:32;;;;;;;5.88;3.55;;;;;;;0.57;68.80;99137.56;5047977;28;20078;-77
2023/02/03 00:14:58;;;;;;;6.93;3.17;;;;;;;0.58;69.30;99147.31;5050212;28;20033;-78
2023/02/03 00:17:23;;;;;;;9.23;3.92;;;;;;;0.58;69.11;99153.56;5049486;28;20525;-77
2023/02/03 00:19:48;;;;;;;9.10;3.85;;;;;;;0.57;69.39;99159.16;5049492;28;20031;-77
2023/02/03 00:22:14;;;;;;;7.82;3.80;;;;;;;0.58;69.17;99167.06;5051277;28;20029;-77
2023/02/03 00:24:39;;;;;;;8.88;4.25;;;;;;;0.55;68.59;99162.09;5051960;28;20086;-77
2023/02/03 00:27:05;;;;;;;8.50;3.65;;;;;;;0.54;69.29;99168.53;5052164;28;20028;-78
2023/02/03 00:29:30;;;;;;;6.40;3.50;;;;;;;0.53;68.72;99158.78;5051467;28;20033;-76
2023/02/03 00:31:57;;;;;;;7.25;3.30;;;;;;;0.52;68.92;99170.59;5052073;28;20376;-77
2023/02/03 00:34:28;;;;;;;5.90;2.90;;;;;;;0.51;68.79;99173.50;5051825;28;20572;-77
2023/02/03 00:36:53;;;;;;;7.10;3.22;;;;;;;0.52;68.94;99169.75;5049254;28;20021;-76
2023/02/03 00:39:18;;;;;;;6.43;3.20;;;;;;;0.53;68.66;99169.56;5051909;28;20036;-77
2023/02/03 00:41:44;;;;;;;7.20;3.60;;;;;;;0.51;68.50;99168.09;5050288;28;20059;-77
2023/02/03 00:44:09;;;;;;;5.95;2.90;;;;;;;0.51;68.58;99171.66;5050435;28;20382;-77
2023/02/03 00:46:35;;;;;;;6.43;3.28;;;;;;;0.49;68.46;99165.63;5050945;28;20056;-79
2023/02/03 00:49:01;;;;;;;8.07;3.75;;;;;;;0.47;67.95;99169.56;5051047;28;20382;-78
2023/02/03 00:51:26;;;;;;;7.22;3.42;;;;;;;0.41;68.91;99168.56;5051464;28;20499;-78
2023/02/03 00:53:52;;;;;;;6.28;3.10;;;;;;;0.37;68.16;99165.47;5051689;28;20025;-77
2023/02/03 00:56:17;;;;;;;6.53;3.60;;;;;;;0.32;68.41;99172.53;5049878;28;20486;-76
2023/02/03 00:58:43;;;;;;;7.40;3.42;;;;;;;0.32;69.04;99167.13;5051024;28;20028;-76
2023/02/03 01:01:08;;;;;;;8.25;3.47;;;;;;;0.31;68.78;99160.91;5051592;28;20538;-76
2023/02/03 01:03:34;;;;;;;7.45;3.13;;;;;;;0.30;68.60;99159.25;5048010;28;20025;-76
2023/02/03 01:06:17;;;;;;;5.72;3.35;;;;;;;0.29;68.87;99157.59;5051342;28;20032;-76
2023/02/03 01:08:43;;;;;;;6.15;3.40;;;;;;;0.29;68.50;99157.59;5051645;28;20056;-77
2023/02/03 01:11:14;;;;;;;5.63;3.20;;;;;;;0.25;68.30;99156.34;5050782;28;20063;-76
2023/02/03 01:13:39;;;;;;;6.07;3.15;;;;;;;0.22;68.74;99144.09;5050378;28;20033;-76
2023/02/03 01:16:11;;;;;;;6.10;3.53;;;;;;;0.21;68.79;99145.13;5051338;28;20127;-76
2023/02/03 01:18:36;;;;;;;4.85;2.75;;;;;;;0.25;68.98;99142.88;5051121;28;20083;-76
2023/02/03 01:21:11;;;;;;;7.38;3.05;;;;;;;0.22;68.61;99149.50;5051854;28;20029;-76
2023/02/03 01:23:37;;;;;;;5.68;3.20;;;;;;;0.19;68.44;99141.84;5051156;28;20040;-76
2023/02/03 01:26:05;;;;;;;8.60;3.70;;;;;;;0.17;68.49;99143.09;5051337;28;20029;-77
2023/02/03 01:28:31;;;;;;;6.07;2.80;;;;;;;0.13;68.70;99148.91;5049912;28;20021;-76
2023/02/03 01:30:56;;;;;;;6.40;3.13;;;;;;;0.13;68.60;99145.41;5051177;28;20040;-76
2023/02/03 01:33:22;;;;;;;6.90;3.40;;;;;;;0.12;68.40;99151.84;5051417;28;20025;-76
2023/02/03 01:35:47;;;;;;;6.55;3.22;;;;;;;0.10;69.19;99149.31;5051008;28;20025;-75
2023/02/03 01:38:12;;;;;;;5.90;3.30;;;;;;;0.07;68.47;99149.75;5051006;28;20504;-76
2023/02/03 01:40:43;;;;;;;5.30;3.25;;;;;;;0.07;68.81;99147.03;5050571;28;20032;-77
2023/02/03 01:43:09;;;;;;;5.80;2.80;;;;;;;0.06;68.43;99149.97;5050922;28;20075;-77
2023/02/03 01:45:35;;;;;;;6.78;3.10;;;;;;;0.02;68.36;99138.75;5050789;28;20032;-75
2023/02/03 01:48:02;;;;;;;5.28;3.35;;;;;;;0.00;69.06;99143.56;5050724;28;20021;-77
2023/02/03 01:50:35;;;;;;;5.97;3.38;;;;;;;-0.03;69.04;99147.50;5050169;28;20060;-76
2023/02/03 01:53:05;;;;;;;6.40;3.22;;;;;;;-0.05;68.69;99140.66;5049440;28;20393;-77
2023/02/03 01:55:33;;;;;;;;;;;;;;;-0.10;69.08;99138.56;5050812;28;20029;-76
2023/02/03 01:58:21;;;;;;;8.75;3.55;;;;;;;-0.15;69.20;99138.38;5050447;28;19920;-77
2023/02/03 02:00:48;;;;;;;9.15;5.07;;;;;;;-0.17;69.03;99135.06;5049868;28;20033;-76
2023/02/03 02:03:15;;;;;;;9.60;5.00;;;;;;;-0.21;69.06;99126.56;5050611;28;20151;-76
2023/02/03 02:05:56;;;;;;;9.82;6.35;;;;;;;-0.25;68.98;99127.22;5050438;28;20124;-76
2023/02/03 02:08:22;;;;;;;7.68;5.00;;;;;;;-0.26;69.02;99122.84;5050331;28;20037;-76
2023/02/03 02:10:49;;;;;;;8.95;4.43;;;;;;;-0.24;69.05;99115.38;5049594;28;20079;-76
2023/02/03 02:13:18;;;;;;;6.93;4.30;;;;;;;-0.21;69.30;99106.88;5050456;28;20372;-76
2023/02/03 02:15:58;;;;;;;6.88;3.83;;;;;;;-0.21;69.10;99101.50;5050360;28;20105;-76
2023/02/03 02:18:52;;;;;;;5.47;3.97;;;;;;;-0.23;69.12;99100.88;5050303;28;20523;-76
2023/02/03 02:21:36;;;;;;;6.72;3.83;;;;;;;-0.21;69.06;99104.19;5048621;28;20098;-76
2023/02/03 02:24:04;;;;;;;6.55;3.95;;;;;;;-0.22;69.40;99099.84;5050298;28;20041;-76
2023/02/03 02:26:32;;;;;;;7.50;4.38;;;;;;;-0.23;69.33;99095.47;5049840;28;20040;-77
2023/02/03 02:29:25;;;;;;;7.25;3.75;;;;;;;-0.24;68.67;99096.50;5049528;28;20421;-77
2023/02/03 02:32:09;;;;;;;5.90;4.20;;;;;;;-0.24;69.19;99099.22;5049633;28;20130;-76
2023/02/03 02:35:09;;;;;;;7.28;4.05;;;;;;;-0.22;69.04;99087.16;5049992;28;20467;-76
2023/02/03 02:37:46;;;;;;;6.15;4.10;;;;;;;-0.21;69.21;99079.91;5049726;28;20045;-76
2023/02/03 02:40:22;;;;;;;5.53;3.15;;;;;;;-0.24;68.96;99075.75;5048720;28;20041;-76
2023/02/03 02:42:51;;;;;;;6.93;2.80;;;;;;;-0.24;68.93;99066.84;5049809;28;20555;-76
2023/02/03 02:45:32;;;;;;;8.98;3.58;;;;;;;-0.27;69.29;99064.59;5049596;28;20098;-76
2023/02/03 02:48:12;;;;;;;9.10;4.13;;;;;;;-0.28;69.11;99060.22;5049609;28;20090;-77
2023/02/03 02:50:42;;;;;;;8.68;4.22;;;;;;;-0.30;68.97;99060.41;5048854;28;20494;-76
2023/02/03 02:53:10;;;;;;;8.90;5.57;;;;;;;-0.33;69.13;99053.59;5048392;28;20556;-76
2023/02/03 02:55:39;;;;;;;7.75;4.30;;;;;;;-0.33;68.99;99052.75;5049393;28;20397;-76
2023/02/03 02:58:08;;;;;;;7.90;4.10;;;;;;;-0.36;69.17;99053.16;5048478;28;20473;-76
2023/02/03 03:00:35;;;;;;;10.70;5.40;;;;;;;-0.39;69.06;99057.13;5049027;28;20068;-76
2023/02/03 03:03:30;;;;;;;9.05;5.88;;;;;;;-0.45;68.95;99052.56;5049441;28;20472;-76
2023/02/03 03:06:02;;;;;;;10.52;5.65;;;;;;;-0.41;69.02;99055.69;5040577;28;20072;-76
2023/02/03 03:08:39;;;;;;;7.78;4.70;;;;;;;-0.40;69.53;99063.56;5049605;28;20419;-76
2023/02/03 03:11:04;;;;;;;6.47;3.40;;;;;;;-0.35;69.25;99071.00;5049201;28;20071;-76
2023/02/03 03:13:35;;;;;;;6.60;3.20;;;;;;;-0.34;69.59;99072.66;5049382;28;20020;-76
2023/02/03 03:16:06;;;;;;;7.25;3.88;;;;;;;-0.32;69.60;99070.59;5049212;28;20105;-76
2023/02/03 03:18:42;;;;;;;9.95;4.65;;;;;;;-0.33;69.62;99069.78;5049211;28;20078;-77
2023/02/03 03:21:11;;;;;;;8.07;5.15;;;;;;;-0.31;69.44;99075.78;5052837;28;20434;-76
2023/02/03 03:23:38;;;;;;;8.27;4.40;;;;;;;-0.27;69.55;99084.25;5053782;28;20029;-76
2023/02/03 03:26:27;;;;;;;10.65;6.15;;;;;;;-0.28;69.46;99066.44;5053367;28;20299;-77
2023/02/03 03:29:05;;;;;;;21.60;14.75;;;;;;;-0.29;69.15;99053.19;5053288;28;20029;-76
2023/02/03 03:31:31;;;;;;;26.55;17.33;;;;;;;-0.28;69.51;99060.22;5052915;28;20529;-76
2023/02/03 03:33:56;;;;;;;21.08;14.20;;;;;;;-0.26;69.23;99050.06;5053512;28;20029;-77
2023/02/03 03:36:25;;;;;;;20.38;13.15;;;;;;;-0.26;69.38;99045.50;5053151;28;20025;-77
2023/02/03 03:39:08;;;;;;;20.03;11.47;;;;;;;-0.29;69.55;99026.22;5052887;28;20080;-76
2023/02/03 03:42:10;;;;;;;14.95;9.55;;;;;;;-0.29;69.42;99023.53;5053011;28;20040;-76
2023/02/03 03:44:47;;;;;;;13.82;8.32;;;;;;;-0.27;69.37;99016.06;5052017;28;20025;-76
2023/02/03 03:47:27;;;;;;;15.00;8.63;;;;;;;-0.29;69.35;99015.44;5052857;28;20111;-76
2023/02/03 03:49:54;;;;;;;37.30;15.13;;;;;;;-0.29;69.31;99005.47;5054099;28;20053;-76
2023/02/03 03:52:27;;;;;;;25.15;11.25;;;;;;;-0.31;69.41;99008.41;5052611;28;20040;-76
2023/02/03 03:54:54;;;;;;;15.35;7.30;;;;;;;-0.32;69.39;99006.75;5052796;28;20052;-76
2023/02/03 03:57:41;;;;;;;14.88;8.27;;;;;;;-0.38;68.87;98996.78;5052460;28;20036;-76
2023/02/03 04:00:10;;;;;;;10.82;5.38;;;;;;;-0.36;69.65;99004.66;5052839;28;20040;-76
2023/02/03 04:02:39;;;;;;;10.60;6.82;;;;;;;-0.36;69.54;99002.81;5052426;28;20029;-75
2023/02/03 04:05:05;;;;;;;11.40;6.80;;;;;;;-0.35;69.76;98992.84;5053162;28;20440;-76
2023/02/03 04:07:42;;;;;;;14.15;9.25;;;;;;;-0.36;69.56;98997.41;5052880;28;20108;-76
2023/02/03 04:10:16;;;;;;;16.00;8.52;;;;;;;-0.32;69.33;98993.25;5051542;28;20033;-76
2023/02/03 04:12:42;;;;;;;14.13;6.85;;;;;;;-0.28;69.65;98995.53;5052301;28;20039;-77
2023/02/03 04:15:08;;;;;;;16.40;8.13;;;;;;;-0.27;69.57;98986.41;5052509;28;20116;-75
2023/02/03 04:17:35;;;;;;;19.40;10.18;;;;;;;-0.25;69.99;98977.06;5051088;28;20493;-76
2023/02/03 04:20:00;;;;;;;22.98;12.15;;;;;;;-0.22;69.51;98973.13;5052394;28;20116;-76
2023/02/03 04:22:26;;;;;;;26.55;11.70;;;;;;;-0.20;69.70;98966.47;5052378;28;20054;-76
2023/02/03 04:24:51;;;;;;;23.90;12.63;;;;;;;-0.18;70.06;98968.94;5052053;28;20501;-76
2023/02/03 04:27:16;;;;;;;30.60;12.07;;;;;;;-0.17;69.85;98963.34;5050901;28;20202;-76
2023/02/03 04:29:42;;;;;;;35.80;14.70;;;;;;;-0.14;69.72;98966.66;5051567;28;20036;-76
2023/02/03 04:32:07;;;;;;;38.22;14.05;;;;;;;-0.11;69.73;98968.94;5052003;28;20378;-76
2023/02/03 04:34:33;;;;;;;38.67;13.27;;;;;;;-0.10;69.93;98966.00;5052104;28;20040;-76
2023/02/03 04:36:58;;;;;;;35.33;14.43;;;;;;;-0.09;69.74;98956.88;5052059;28;20032;-76
2023/02/03 04:39:24;;;;;;;33.30;13.45;;;;;;;-0.06;69.67;98950.25;5051743;28;20040;-76
2023/02/03 04:41:50;;;;;;;34.03;13.30;;;;;;;-0.06;69.74;98945.66;5051788;28;20039;-76
2023/02/03 04:44:16;;;;;;;30.15;12.63;;;;;;;-0.04;69.89;98946.28;5051951;28;20624;-76
2023/02/03 04:46:41;;;;;;;29.48;14.50;;;;;;;-0.05;69.60;98941.91;5050600;28;20025;-76
2023/02/03 04:49:08;;;;;;;26.15;13.40;;;;;;;-0.07;69.68;98949.41;5050324;28;20025;-76
2023/02/03 04:51:33;;;;;;;26.17;11.88;;;;;;;-0.08;69.51;98942.34;5051882;28;20036;-76
2023/02/03 04:53:59;;;;;;;28.48;13.60;;;;;;;-0.08;69.93;98942.34;5050752;28;20025;-76
2023/02/03 04:56:24;;;;;;;25.40;13.80;;;;;;;-0.08;69.33;98942.34;5051874;28;20130;-76
2023/02/03 04:58:49;;;;;;;20.83;11.32;;;;;;;-0.08;69.80;98939.66;5051691;28;20025;-76
2023/02/03 05:01:15;;;;;;;17.95;9.70;;;;;;;-0.08;69.83;98930.75;5050636;28;20033;-76
2023/02/03 05:03:40;;;;;;;17.50;9.02;;;;;;;-0.07;69.30;98930.53;5051913;28;20025;-75
2023/02/03 05:06:06;;;;;;;16.20;9.85;;;;;;;-0.06;69.86;98926.78;5052039;28;20083;-76
2023/02/03 05:08:31;;;;;;;18.92;9.75;;;;;;;-0.10;69.55;98928.25;5052407;28;20025;-76
2023/02/03 05:10:57;;;;;;;16.42;8.70;;;;;;;-0.13;69.18;98925.16;5051896;28;20029;-77
2023/02/03 05:13:22;;;;;;;19.95;8.93;;;;;;;-0.18;69.35;98904.22;5051676;28;20029;-76
2023/02/03 05:15:47;;;;;;;16.92;8.65;;;;;;;-0.18;69.61;98891.59;5051550;28;20040;-76
2023/02/03 05:18:13;;;;;;;19.00;8.02;;;;;;;-0.15;69.71;98884.94;5051627;28;20025;-75
2023/02/03 05:20:38;;;;;;;14.38;8.02;;;;;;;-0.15;69.35;98882.22;5051344;28;20104;-76
2023/02/03 05:23:03;;;;;;;14.48;8.65;;;;;;;-0.16;69.48;98884.13;5051939;28;20420;-76
2023/02/03 05:25:30;;;;;;;13.38;7.63;;;;;;;-0.14;69.58;98875.00;5051157;28;20021;-76
2023/02/03 05:27:55;;;;;;;14.68;7.68;;;;;;;-0.13;69.84;98877.44;5051642;28;20039;-77
2023/02/03 05:30:20;;;;;;;20.75;10.82;;;;;;;-0.11;69.68;98867.28;5050760;28;20469;-76
2023/02/03 05:32:48;;;;;;;17.75;9.30;;;;;;;-0.11;69.67;98869.16;5051338;28;20036;-76
2023/02/03 05:35:13;;;;;;;14.80;8.68;;;;;;;-0.10;69.39;98860.03;5051171;28;20024;-76
2023/02/03 05:37:38;;;;;;;17.15;8.02;;;;;;;-0.08;69.57;98866.84;5051122;28;20409;-76
2023/02/03 05:42:49;;;;;;;15.13;7.38;;;;;;;-0.09;69.96;98849.03;5050463;28;20032;-76
2023/02/03 05:45:15;;;;;;;12.50;7.13;;;;;;;-0.12;69.52;98846.75;5051302;28;20025;-76
2023/02/03 05:47:41;;;;;;;16.15;8.20;;;;;;;-0.12;69.70;98844.06;5052617;28;20033;-76
2023/02/03 05:50:06;;;;;;;15.48;7.97;;;;;;;-0.18;69.20;98848.47;5051062;28;20036;-76
2023/02/03 05:52:32;;;;;;;15.90;7.90;;;;;;;-0.21;68.91;98838.09;5050712;28;20405;-76
2023/02/03 05:54:57;;;;;;;15.50;8.50;;;;;;;-0.23;69.50;98831.28;5048560;28;20573;-76
2023/02/03 05:57:23;;;;;;;19.98;12.18;;;;;;;-0.24;68.88;98832.34;5050536;28;20029;-75
2023/02/03 05:59:48;;;;;;;15.57;9.25;;;;;;;-0.27;68.95;98838.97;5047036;28;20021;-76
2023/02/03 06:02:14;;;;;;;16.25;8.65;;;;;;;-0.28;68.92;98831.91;5050519;28;20043;-75
2023/02/03 06:04:40;;;;;;;12.50;7.38;;;;;;;-0.32;68.88;98826.16;5049860;28;20059;-76
2023/02/03 06:07:05;;;;;;;17.60;8.57;;;;;;;-0.35;68.66;98823.88;5050408;28;20130;-76
2023/02/03 06:09:30;;;;;;;13.02;6.72;;;;;;;-0.38;68.28;98813.53;5050303;28;20047;-76
2023/02/03 06:11:56;;;;;;;16.33;7.68;;;;;;;-0.41;68.49;98816.66;5050618;28;20044;-77
2023/02/03 06:14:21;;;;;;;12.82;6.60;;;;;;;-0.43;68.42;98809.84;5049974;28;20518;-76
2023/02/03 06:16:46;;;;;;;14.02;6.65;;;;;;;-0.46;68.42;98806.53;5050511;28;20397;-76
2023/02/03 06:19:12;;;;;;;12.48;6.07;;;;;;;-0.47;68.71;98806.72;5050326;28;20133;-76
2023/02/03 06:21:37;;;;;;;16.42;6.50;;;;;;;-0.46;68.93;98817.31;5050647;28;21589;-76
2023/02/03 06:24:03;;;;;;;13.38;5.88;;;;;;;-0.44;68.55;98811.69;5050018;28;20031;-76
2023/02/03 06:26:28;;;;;;;12.60;6.18;;;;;;;-0.43;67.83;98807.16;5048613;28;20025;-76
2023/02/03 06:28:53;;;;;;;12.95;6.38;;;;;;;-0.44;68.12;98803.59;5049987;28;20039;-76
2023/02/03 06:31:19;;;;;;;11.60;5.95;;;;;;;-0.46;68.38;98795.75;5050222;28;20115;-76
2023/02/03 06:33:44;;;;;;;13.02;6.80;;;;;;;-0.46;67.67;98790.38;5049881;28;20099;-76
2023/02/03 06:36:09;;;;;;;11.88;5.80;;;;;;;-0.42;68.07;98787.25;5050106;28;20041;-77
2023/02/03 06:38:35;;;;;;;18.08;7.45;;;;;;;-0.46;67.87;98773.34;5049690;28;20486;-77
2023/02/03 06:41:00;;;;;;;15.82;6.85;;;;;;;-0.45;67.42;98783.09;5049585;28;20479;-76
2023/02/03 06:43:26;;;;;;;14.23;6.47;;;;;;;-0.46;67.09;98770.66;5048601;28;20028;-76
2023/02/03 06:45:51;;;;;;;9.45;5.60;;;;;;;-0.47;67.10;98769.00;5049479;28;20017;-76
2023/02/03 06:48:17;;;;;;;13.70;6.32;;;;;;;-0.47;67.09;98759.06;5049974;28;20029;-76
2023/02/03 06:50:43;;;;;;;11.88;5.93;;;;;;;-0.47;67.50;98755.53;5049789;28;20021;-76
2023/02/03 06:53:09;;;;;;;14.40;6.93;;;;;;;-0.47;66.92;98759.06;5050062;28;20053;-76
2023/02/03 06:55:34;;;;;;;12.55;6.85;;;;;;;-0.44;67.28;98755.09;5048446;28;20063;-76
2023/02/03 06:57:59;;;;;;;15.32;7.97;;;;;;;-0.40;66.58;98742.84;5050010;28;20461;-77
2023/02/03 07:00:25;;;;;;;18.58;9.40;;;;;;;-0.40;67.38;98745.53;5049181;28;20471;-76
2023/02/03 07:02:58;;;;;;;16.92;7.72;;;;;;;-0.38;66.97;98751.53;5046361;28;20082;-76
2023/02/03 07:05:26;;;;;;;12.85;7.05;;;;;;;-0.34;66.76;98738.44;5048625;28;20021;-77
2023/02/03 07:07:52;;;;;;;11.93;6.85;;;;;;;-0.32;66.91;98741.75;5049800;28;20020;-77
2023/02/03 07:10:17;;;;;;;13.43;7.95;;;;;;;-0.27;67.00;98741.13;5048876;28;20036;-75
2023/02/03 07:12:43;;;;;;;13.65;7.45;;;;;;;-0.26;66.33;98734.69;5049680;28;20020;-75
2023/02/03 07:15:10;;;;;;;14.38;7.13;;;;;;;-0.24;66.20;98735.28;5049290;28;20401;-75
2023/02/03 07:17:35;;;;;;;21.00;10.68;;;;;;;-0.24;66.11;98732.59;5048534;28;20416;-75
2023/02/03 07:20:01;;;;;;;14.35;7.50;;;;;;;-0.24;66.53;98733.41;5049968;28;20558;-75
2023/02/03 07:22:26;;;;;;;14.68;6.65;;;;;;;-0.22;66.89;98735.91;5050053;28;20108;-74
2023/02/03 07:24:52;;;;;;;14.45;7.93;;;;;;;-0.18;66.67;98734.38;5049932;28;20422;-75
2023/02/03 07:27:18;;;;;;;19.27;10.02;;;;;;;-0.18;66.53;98727.16;5050537;28;20021;-75
2023/02/03 07:29:44;;;;;;;14.43;8.07;;;;;;;-0.13;66.64;98723.78;5049294;28;20029;-75
2023/02/03 07:32:09;;;;;;;17.05;8.98;;;;;;;-0.12;66.12;98727.31;5049849;28;20028;-75
2023/02/03 07:34:34;;;;;;;20.52;10.52;;;;;;;-0.11;66.13;98732.47;5049445;28;20032;-76
2023/02/03 07:37:00;;;;;;;14.88;7.10;;;;;;;-0.10;66.17;98734.13;5049846;28;20104;-76
2023/02/03 07:39:25;;;;;;;29.05;13.55;;;;;;;-0.07;66.02;98735.56;5049310;28;20059;-76
2023/02/03 07:41:50;;;;;;;28.48;12.95;;;;;;;-0.06;66.52;98731.84;5047567;28;20029;-75
2023/02/03 07:44:16;;;;;;;21.58;10.45;;;;;;;0.00;66.52;98728.25;5050149;28;20049;-76
2023/02/03 07:46:43;;;;;;;14.27;7.15;;;;;;;0.06;66.17;98721.16;5049013;28;20025;-76
2023/02/03 07:49:12;;;;;;;13.85;7.45;;;;;;;0.09;66.16;98709.91;5048226;28;20028;-77
2023/02/03 07:51:38;;;;;;;15.25;6.90;;;;;;;0.13;66.57;98700.34;5047127;28;20079;-81
2023/02/03 07:54:03;;;;;;;15.27;6.47;;;;;;;0.18;65.90;98702.34;5039225;28;20366;-72
2023/02/03 07:56:31;;;;;;;12.05;6.65;;;;;;;0.20;66.24;98695.72;5045582;28;20033;-74
2023/02/03 07:58:57;;;;;;;10.25;5.22;;;;;;;0.23;66.35;98689.03;5047432;28;20021;-74
2023/02/03 08:01:22;;;;;;;9.52;5.50;;;;;;;0.26;65.90;98685.88;5047910;28;20477;-75
2023/02/03 08:03:48;;;;;;;10.50;5.30;;;;;;;0.25;66.29;98690.44;5043613;28;20048;-74
2023/02/03 08:06:14;;;;;;;12.52;7.85;;;;;;;0.26;67.01;98692.09;5049355;28;20659;-74
2023/02/03 08:08:40;;;;;;;11.02;7.03;;;;;;;0.24;66.54;98685.28;5052046;28;20031;-72
2023/02/03 08:11:05;;;;;;;12.13;5.78;;;;;;;0.21;66.98;98678.44;5050403;28;20033;-74
2023/02/03 08:13:31;;;;;;;12.30;6.28;;;;;;;0.20;67.33;98681.38;5051362;28;20412;-75
2023/02/03 08:15:56;;;;;;;14.82;7.53;;;;;;;0.13;67.65;98673.38;5052408;28;20028;-73
2023/02/03 08:18:22;;;;;;;13.68;7.15;;;;;;;0.10;67.88;98663.84;5049893;28;20025;-72
2023/02/03 08:20:48;;;;;;;14.23;7.50;;;;;;;0.09;67.54;98650.59;5050307;28;20100;-72
2023/02/03 08:23:13;;;;;;;15.70;8.48;;;;;;;0.10;68.46;98647.66;5050849;28;20052;-74
2023/02/03 08:25:38;;;;;;;23.10;13.43;;;;;;;0.13;68.08;98646.41;5051338;28;20040;-73
2023/02/03 08:28:04;;;;;;;21.33;14.30;;;;;;;0.18;69.07;98632.22;5050551;28;20025;-73
2023/02/03 08:30:29;;;;;;;22.25;14.70;;;;;;;0.18;68.50;98624.97;5049438;28;20040;-75
2023/02/03 08:32:56;;;;;;;15.32;8.82;;;;;;;0.21;68.42;98621.81;5047607;28;20106;-72
2023/02/03 08:35:21;;;;;;;11.20;7.60;;;;;;;0.23;68.76;98621.59;5051701;28;20431;-73
2023/02/03 08:37:46;;;;;;;14.38;7.65;;;;;;;0.24;68.96;98610.56;5049018;28;20136;-74
2023/02/03 08:40:12;;;;;;;11.00;6.70;;;;;;;0.23;69.30;98605.41;5049898;28;20029;-72
2023/02/03 08:42:38;;;;;;;12.00;7.60;;;;;;;0.24;69.33;98596.25;5048851;28;20033;-73
2023/02/03 08:45:04;;;;;;;15.30;8.82;;;;;;;0.24;70.06;98601.66;5049433;28;20366;-74
2023/02/03 08:47:30;;;;;;;13.65;7.75;;;;;;;0.24;69.84;98586.28;5048487;28;20036;-75
2023/02/03 08:49:55;;;;;;;13.50;7.38;;;;;;;0.29;70.67;98583.72;5050105;28;20086;-75
2023/02/03 08:52:21;;;;;;;15.85;7.90;;;;;;;0.35;70.32;98575.78;5051060;28;20079;-75
2023/02/03 08:54:48;;;;;;;15.27;8.75;;;;;;;0.41;70.41;98567.59;5052610;28;20552;-76
2023/02/03 08:57:14;;;;;;;13.23;9.10;;;;;;;0.47;70.57;98562.34;5051795;28;20033;-72
2023/02/03 08:59:43;;;;;;;13.95;8.95;;;;;;;0.53;70.61;98556.88;5050428;28;20048;-74
2023/02/03 09:02:14;;;;;;;12.57;7.90;;;;;;;0.55;70.76;98565.59;5050144;28;20036;-74
2023/02/03 09:04:39;;;;;;;12.50;7.68;;;;;;;0.51;70.80;98547.34;5051129;28;20044;-74
2023/02/03 09:07:05;;;;;;;12.27;6.93;;;;;;;0.50;70.96;98543.84;5050951;28;20025;-71
2023/02/03 09:09:30;;;;;;;13.25;8.18;;;;;;;0.53;70.75;98537.16;5049265;28;20029;-74
2023/02/03 09:12:00;;;;;;;12.30;7.55;;;;;;;0.55;71.37;98540.44;5049373;28;20067;-74
2023/02/03 09:14:26;;;;;;;;;;;;;;;0.54;71.36;98525.31;5048124;28;20021;-74
2023/02/03 09:16:52;;;;;;;12.60;7.95;;;;;;;0.53;71.12;98505.59;5048572;28;19950;-74
2023/02/03 09:19:18;;;;;;;11.55;7.22;;;;;;;0.56;71.89;98515.09;5049240;28;20067;-75
2023/02/03 09:21:44;;;;;;;11.05;6.60;;;;;;;0.56;72.40;98491.66;5049608;28;20473;-75
2023/02/03 09:24:09;;;;;;;10.13;6.78;;;;;;;0.55;72.15;98483.78;5049806;28;20108;-74
2023/02/03 09:26:35;;;;;;;9.70;6.20;;;;;;;0.55;72.24;98481.91;5048076;28;20120;-74
2023/02/03 09:29:00;;;;;;;12.57;7.38;;;;;;;0.61;72.00;98488.25;5049120;28;20032;-74
2023/02/03 09:31:26;;;;;;;10.88;7.70;;;;;;;0.64;72.17;98474.31;5049594;28;20493;-74
2023/02/03 09:33:51;;;;;;;10.10;7.45;;;;;;;0.67;72.51;98464.91;5048228;28;20031;-73
2023/02/03 09:36:16;;;;;;;12.90;7.78;;;;;;;0.70;72.40;98465.28;5049150;28;20552;-74
2023/02/03 09:38:42;;;;;;;14.02;7.68;;;;;;;0.73;72.13;98458.59;5046707;28;20057;-72
2023/02/03 09:41:19;;;;;;;13.40;8.27;;;;;;;0.74;72.99;98446.72;5048060;28;20052;-73
2023/02/03 09:43:50;;;;;;;13.13;8.30;;;;;;;0.76;73.12;98450.03;5049498;28;20021;-71
2023/02/03 09:46:24;;;;;;;15.57;9.10;;;;;;;0.75;72.71;98432.19;5049364;28;20028;-71
2023/02/03 09:48:55;;;;;;;18.38;9.88;;;;;;;0.78;73.35;98426.31;5060015;28;20127;-71
2023/02/03 09:51:26;;;;;;;14.40;8.45;;;;;;;0.80;73.12;98405.31;5042963;28;20092;-72
2023/02/03 09:54:17;;;;;;;15.55;8.52;;;;;;;0.84;72.94;98393.00;5049105;28;20049;-77
2023/02/03 09:56:49;;;;;;;15.93;9.35;;;;;;;0.87;72.72;98384.41;5045495;28;20412;-74
2023/02/03 09:59:15;;;;;;;13.65;9.05;;;;;;;0.88;73.14;98375.25;5050878;28;20037;-74
2023/02/03 10:02:12;;;;;;;14.25;8.38;;;;;;;0.85;73.42;98364.94;5050883;28;20039;-74
2023/02/03 10:05:09;;;;;;;17.45;9.98;;;;;;;0.85;73.49;98362.22;5046635;28;20033;-74
2023/02/03 10:07:50;;;;;;;21.08;11.05;;;;;;;0.85;73.61;98356.84;5041111;28;20045;-72
2023/02/03 10:10:33;;;;;;;24.17;10.98;;;;;;;0.86;73.51;98347.69;5049570;28;20037;-73
2023/02/03 10:13:11;;;;;;;29.20;13.57;;;;;;;0.84;73.54;98338.16;5050334;28;20017;-75
2023/02/03 10:16:04;;;;;;;36.45;16.13;;;;;;;0.82;74.26;98341.09;5048806;28;20029;-75
2023/02/03 10:18:36;;;;;;;19.60;9.77;;;;;;;0.81;74.04;98327.84;5049505;28;20036;-74
2023/02/03 10:21:12;;;;;;;20.85;9.82;;;;;;;0.80;74.46;98324.31;5047280;28;20050;-74
2023/02/03 10:23:40;;;;;;;31.00;15.95;;;;;;;0.80;74.02;98315.41;5049579;28;20033;-74
2023/02/03 10:26:15;;;;;;;21.02;12.35;;;;;;;0.77;74.89;98313.19;5050926;28;20025;-74
2023/02/03 10:29:03;;;;;;;17.20;10.60;;;;;;;0.75;75.44;98305.28;5050543;28;20035;-75
2023/02/03 10:31:34;;;;;;;11.60;8.40;;;;;;;0.72;75.17;98290.41;5049381;28;20550;-74
2023/02/03 10:34:11;;;;;;;14.45;9.02;;;;;;;0.71;75.32;98285.22;5047612;28;20052;-75
2023/02/03 10:36:53;;;;;;;11.52;8.00;;;;;;;0.72;75.31;98265.28;5048426;28;20021;-75
2023/02/03 10:39:51;;;;;;;11.57;7.47;;;;;;;0.72;76.01;98247.22;5050130;28;20041;-74
2023/02/03 10:42:17;;;;;;;10.73;7.20;;;;;;;0.73;75.54;98251.56;5013425;28;20071;-72
2023/02/03 10:44:55;;;;;;;11.20;7.13;;;;;;;0.76;75.90;98244.84;5048608;28;20049;-73
2023/02/03 10:47:33;;;;;;;11.32;7.10;;;;;;;0.78;76.27;98237.34;5049211;28;20029;-72
2023/02/03 10:50:04;;;;;;;10.85;7.75;;;;;;;0.78;75.88;98244.63;5045234;28;20425;-73
2023/02/03 10:52:34;;;;;;;12.82;8.23;;;;;;;0.78;75.34;98229.22;5047748;28;20537;-72
2023/02/03 10:55:24;;;;;;;12.15;7.75;;;;;;;0.79;76.10;98228.19;5043124;28;20431;-73
2023/02/03 10:57:51;;;;;;;10.52;6.43;;;;;;;0.81;76.12;98212.56;5042266;28;20052;-73
2023/02/03 11:00:16;;;;;;;13.65;7.10;;;;;;;0.84;76.32;98201.28;5047445;28;20136;-74
2023/02/03 11:02:42;;;;;;;14.00;8.45;;;;;;;0.83;76.68;98191.53;5045890;28;20119;-73
2023/02/03 11:05:19;;;;;;;12.45;8.40;;;;;;;0.81;76.87;98182.06;5046348;28;20028;-73
2023/02/03 11:07:45;;;;;;;9.07;6.40;;;;;;;0.80;76.96;98181.22;5044581;28;20036;-72
2023/02/03 11:10:39;;;;;;;12.88;7.57;;;;;;;0.75;76.88;98159.53;5046461;28;20033;-71
2023/02/03 11:13:18;;;;;;;12.43;7.22;;;;;;;0.77;77.05;98153.91;5037952;28;20041;-74
2023/02/03 11:15:54;;;;;;;10.43;7.53;;;;;;;0.75;77.66;98140.63;5048515;28;20111;-74
2023/02/03 11:18:25;;;;;;;11.48;6.72;;;;;;;0.75;77.71;98132.53;5048918;28;20040;-74
2023/02/03 11:20:51;;;;;;;11.80;8.80;;;;;;;0.76;77.57;98126.06;5049405;28;20111;-74
2023/02/03 11:23:19;;;;;;;11.90;7.70;;;;;;;0.79;77.59;98114.78;5045047;28;20025;-74
2023/02/03 11:25:44;;;;;;;10.48;6.57;;;;;;;0.81;78.18;98101.88;5049368;28;20025;-74
2023/02/03 11:28:12;;;;;;;10.38;7.60;;;;;;;0.80;77.17;98102.13;5049609;28;20128;-74
2023/02/03 11:30:38;;;;;;;11.35;7.20;;;;;;;0.81;77.95;98099.16;5048817;28;20469;-75
2023/02/03 11:33:16;;;;;;;9.68;6.63;;;;;;;0.78;77.91;98086.16;5049056;28;20032;-75
2023/02/03 11:35:57;;;;;;;11.15;7.30;;;;;;;0.80;78.36;98078.63;5047871;28;20043;-74
2023/02/03 11:38:35;;;;;;;11.48;8.30;;;;;;;0.80;77.95;98070.53;5048908;28;20051;-74
2023/02/03 11:41:01;;;;;;;10.23;7.43;;;;;;;0.85;77.89;98057.13;5050753;28;20051;-74
2023/02/03 11:43:28;;;;;;;12.60;8.00;;;;;;;0.89;78.26;98052.06;5053634;28;20056;-74